Kirksville, MO

12:22 AM CST on December 09, 2016 (GMT -0600)
Kirksville Regional | | Change Station

Elev 965 ft 40.10 °N, 92.55 °W | Updated 27 minutes ago

Clear
Clear
15 °F
Feels Like 5 °F
N
7
Wind Variable Wind from WNW

Today
High -- | Low -- °F
--% Chance of Precip.
Yesterday
High -- | Low -- °F
Precip. -- in
Pressure 30.65 in
Visibility 10.0 miles
Clouds Clear
Windchill 5 °F
Dew Point 9 °F
Humidity 77%
Rainfall 0.00 in
Snow Depth Not available.
7:20 AM 4:44 PM
Waxing Gibbous, 71% visible
METAR KIRK 090555Z AUTO 30006KT 10SM CLR M09/M13 A3059 RMK AO2 SLP378 T10941128 11072 21094 410331100 51004
Pressure 30.65 in
Visibility 10.0 miles
Clouds Clear
Windchill 5 °F
Dew Point 9 °F
Humidity 77%
Rainfall 0.00 in
Snow Depth Not available.
7:20 AM 4:44 PM
Waxing Gibbous, 71% visible
METAR KIRK 090555Z AUTO 30006KT 10SM CLR M09/M13 A3059 RMK AO2 SLP378 T10941128 11072 21094 410331100 51004

10-Day Weather Forecast

Almanac

Astronomy

Dec. 09, 2016 Rise Set
Actual Time
Civil Twilight
Nautical Twilight
Astronomical Twilight
Moon
Length of Visible Light
Length of Day
Tomorrow will be .
, % of the Moon is Illuminated

Today's Extremes

State Highs State Lows

Community

WunderPhotos

Upload Photos

1,956,374 photos uploaded!

WunderBlog® & News

Nearby

Air Quality

  Air Quality AQ Index Pollutant
Not available.

Snow Depth

Station Depth Elevation

Earthquake Activity

City Distance Mag. Time & Date
Minimum magnitude displayed is 2.5.

Coastal Water Temperatures

Place Temperature

Stations

Nearby Weather Stations

Station Location Temp. Windchill Dew Point Humidity Wind Precip. Elev Updated Type
                   

Watches & Warnings

There are currently no watches in effect.